Time;durP1;ratioP1;P1;durP2;ratioP2;P2;SDS_P1;SDS_P2;PMS_P1;PMS_P2;Temp;Humidity;BMP_temperature;BMP_pressure;BME280_temperature;BME280_humidity;BME280_pressure;Samples;Min_cycle;Max_cycle;Signal;HPM_P1;HPM_P2
2020/12/10 00:00:57;;;;;;;12.37;6.70;;;;;;;4.93;100.00;93968.44;10475235;28;20038;-73
2020/12/10 00:05:57;;;;;;;11.10;7.05;;;;;;;5.02;100.00;93976.75;10487092;28;20321;-73
2020/12/10 00:10:58;;;;;;;14.40;8.23;;;;;;;5.02;100.00;93973.31;10487022;28;20041;-72
2020/12/10 00:15:58;;;;;;;13.23;7.45;;;;;;;4.96;100.00;93957.28;10486699;28;20840;-73
2020/12/10 00:20:58;;;;;;;19.95;7.85;;;;;;;4.96;100.00;93951.16;10486794;28;20033;-73
2020/12/10 00:25:59;;;;;;;14.27;7.63;;;;;;;5.01;100.00;93947.72;10485648;28;20066;-73
2020/12/10 00:30:59;;;;;;;17.23;7.93;;;;;;;5.02;100.00;93942.13;10484929;28;20063;-73
2020/12/10 00:36:00;;;;;;;12.70;7.70;;;;;;;5.03;100.00;93958.94;10486146;28;20028;-73
2020/12/10 00:41:00;;;;;;;13.77;8.18;;;;;;;5.12;100.00;93960.84;10485203;28;20056;-73
2020/12/10 00:46:05;;;;;;;16.80;9.30;;;;;;;5.17;100.00;93960.06;10485750;28;20119;-73
2020/12/10 00:51:07;;;;;;;19.00;10.00;;;;;;;5.21;100.00;93947.06;10486046;28;20041;-73
2020/12/10 00:56:08;;;;;;;18.27;9.50;;;;;;;5.29;100.00;93923.38;10486851;28;20555;-73
2020/12/10 01:01:08;;;;;;;15.70;9.15;;;;;;;5.12;100.00;93954.72;10487370;28;20098;-73
2020/12/10 01:06:12;;;;;;;16.93;9.93;;;;;;;4.95;100.00;93960.22;10486795;28;20068;-73
2020/12/10 01:11:12;;;;;;;19.00;10.38;;;;;;;5.05;100.00;93956.81;10487100;28;20297;-73
2020/12/10 01:16:13;;;;;;;17.10;9.95;;;;;;;5.06;100.00;93934.44;10486996;28;20053;-73
2020/12/10 01:21:13;;;;;;;19.08;10.15;;;;;;;4.92;100.00;93945.53;10487189;28;20047;-73
2020/12/10 01:26:13;;;;;;;18.07;9.63;;;;;;;4.97;100.00;93942.91;10487081;28;20036;-73
2020/12/10 01:31:14;;;;;;;23.20;10.83;;;;;;;5.12;100.00;93928.06;10490604;28;20908;-73
2020/12/10 01:36:28;;;;;;;15.90;9.45;;;;;;;5.14;100.00;93916.09;10494746;28;20305;-73
2020/12/10 01:41:31;;;;;;;16.98;10.35;;;;;;;5.08;100.00;93906.50;10494560;28;20037;-73
2020/12/10 01:46:32;;;;;;;17.23;9.43;;;;;;;5.04;100.00;93934.72;10510023;28;20077;-73
2020/12/10 01:51:33;;;;;;;20.00;10.63;;;;;;;4.73;100.00;93925.72;10509552;28;20036;-72
2020/12/10 01:56:34;;;;;;;18.38;10.48;;;;;;;4.81;100.00;93906.59;10493225;28;20032;-73
2020/12/10 02:01:35;;;;;;;19.73;11.60;;;;;;;4.82;100.00;93908.22;10492880;28;20483;-73
2020/12/10 02:06:35;;;;;;;24.98;12.00;;;;;;;4.71;100.00;93917.19;10493376;28;20078;-73
2020/12/10 02:11:36;;;;;;;19.83;11.63;;;;;;;4.77;100.00;93900.19;10493327;28;20082;-73
2020/12/10 02:16:37;;;;;;;19.73;11.32;;;;;;;4.62;100.00;93930.97;10493066;28;20305;-73
2020/12/10 02:21:38;;;;;;;19.92;12.10;;;;;;;4.79;100.00;93909.53;10508651;28;20135;-73
2020/12/10 02:26:39;;;;;;;22.23;12.68;;;;;;;4.86;100.00;93916.50;10492994;28;20067;-73
2020/12/10 02:31:39;;;;;;;23.83;12.68;;;;;;;5.03;100.00;93903.81;10492632;28;20120;-73
2020/12/10 02:36:40;;;;;;;23.65;12.98;;;;;;;5.05;100.00;93883.06;10492642;28;20055;-73
2020/12/10 02:41:40;;;;;;;23.42;12.68;;;;;;;4.96;100.00;93896.03;10491578;28;20039;-73
2020/12/10 02:46:41;;;;;;;23.58;11.65;;;;;;;4.89;100.00;93892.03;10491703;28;20043;-73
2020/12/10 02:51:42;;;;;;;26.88;14.65;;;;;;;4.64;100.00;93882.03;10491519;28;20043;-73
2020/12/10 02:56:43;;;;;;;26.08;13.73;;;;;;;4.88;100.00;93895.72;10491162;28;20111;-73
2020/12/10 03:01:43;;;;;;;29.30;15.23;;;;;;;4.75;100.00;93891.69;10491638;28;20143;-73
2020/12/10 03:06:44;;;;;;;22.65;14.32;;;;;;;5.00;100.00;93871.56;10491200;28;20089;-73
2020/12/10 03:11:44;;;;;;;26.63;13.63;;;;;;;5.14;100.00;93884.16;10491085;28;20036;-73
2020/12/10 03:16:44;;;;;;;24.67;14.53;;;;;;;4.96;100.00;93864.09;10490883;28;20711;-73
2020/12/10 03:21:45;;;;;;;30.33;15.57;;;;;;;5.17;100.00;93858.84;10490007;28;20337;-73
2020/12/10 03:26:45;;;;;;;26.60;15.37;;;;;;;5.06;100.00;93881.97;10490399;28;20328;-73
2020/12/10 03:31:46;;;;;;;27.77;16.03;;;;;;;5.10;100.00;93844.97;10490075;28;20348;-73
2020/12/10 03:36:52;;;;;;;27.00;14.50;;;;;;;5.12;100.00;93870.28;10490244;28;20313;-73
2020/12/10 03:41:53;;;;;;;31.52;16.00;;;;;;;5.10;100.00;93864.41;10490021;28;20032;-74
2020/12/10 03:46:54;;;;;;;27.48;15.45;;;;;;;5.21;100.00;93840.50;10489914;28;20036;-73
2020/12/10 03:51:55;;;;;;;30.17;16.05;;;;;;;4.96;100.00;93896.03;10489642;28;20032;-74
2020/12/10 03:56:55;;;;;;;25.27;15.48;;;;;;;5.09;100.00;93851.34;10488858;28;20036;-74
2020/12/10 04:01:56;;;;;;;25.70;14.52;;;;;;;4.99;100.00;93883.28;10489201;28;20036;-74
2020/12/10 04:06:56;;;;;;;25.60;14.15;;;;;;;4.99;100.00;93901.91;10489038;28;20110;-73
2020/12/10 04:11:57;;;;;;;23.07;13.87;;;;;;;5.16;100.00;93859.13;10488662;28;20055;-74
2020/12/10 04:16:57;;;;;;;24.40;13.77;;;;;;;5.04;100.00;93843.38;10488499;28;20044;-74
2020/12/10 04:21:58;;;;;;;26.48;14.60;;;;;;;4.98;100.00;93909.09;10488063;28;20515;-73
2020/12/10 04:26:58;;;;;;;30.08;15.80;;;;;;;4.99;100.00;93915.25;10488329;28;20397;-73
2020/12/10 04:31:59;;;;;;;31.47;16.67;;;;;;;5.18;100.00;93919.06;10488006;28;20036;-73
2020/12/10 04:36:59;;;;;;;23.65;14.95;;;;;;;5.25;100.00;93858.34;10488040;28;20287;-73
2020/12/10 04:42:07;;;;;;;21.98;14.15;;;;;;;5.22;100.00;93914.81;10487852;28;20040;-73
2020/12/10 04:47:09;;;;;;;30.87;16.53;;;;;;;5.35;100.00;93897.56;10487439;28;20454;-75
2020/12/10 04:52:11;;;;;;;24.95;14.13;;;;;;;5.38;100.00;93883.69;10487510;28;20032;-75
2020/12/10 04:57:15;;;;;;;32.20;16.80;;;;;;;5.48;100.00;93894.41;10487382;28;20033;-75
2020/12/10 05:02:19;;;;;;;28.85;16.17;;;;;;;5.45;100.00;93894.91;10486988;28;20361;-74
2020/12/10 05:07:19;;;;;;;28.10;16.33;;;;;;;5.56;100.00;93895.75;10492273;28;20048;-75
2020/12/10 05:12:19;;;;;;;29.33;16.38;;;;;;;5.64;100.00;93881.91;10477325;28;20043;-75
2020/12/10 05:17:20;;;;;;;26.98;16.30;;;;;;;5.70;100.00;93889.94;10495041;28;20043;-74
2020/12/10 05:22:21;;;;;;;27.95;17.05;;;;;;;5.54;100.00;93897.06;10477229;28;20052;-74
2020/12/10 05:27:23;;;;;;;28.95;18.35;;;;;;;5.59;100.00;93889.09;10494077;28;20123;-76
2020/12/10 05:32:41;;;;;;;31.30;17.92;;;;;;;5.74;100.00;93904.34;10494516;28;20830;-73
2020/12/10 05:37:41;;;;;;;27.90;15.82;;;;;;;5.69;100.00;93910.44;10493686;28;20036;-73
2020/12/10 05:42:44;;;;;;;30.87;16.93;;;;;;;5.77;100.00;93874.47;10494433;28;20039;-72
2020/12/10 05:47:53;;;;;;;27.88;16.23;;;;;;;5.68;100.00;93914.19;10491508;28;20282;-73
2020/12/10 05:53:13;;;;;;;27.17;16.85;;;;;;;5.63;100.00;93917.63;10492170;28;20040;-73
2020/12/10 05:58:20;;;;;;;28.10;15.32;;;;;;;5.69;100.00;93899.00;10491335;28;20028;-73
2020/12/10 06:03:20;;;;;;;24.95;14.50;;;;;;;5.54;100.00;93913.88;10492153;28;20040;-73
2020/12/10 06:08:20;;;;;;;27.33;14.50;;;;;;;5.39;100.00;93929.81;10490563;28;20028;-73
2020/12/10 06:13:23;;;;;;;28.70;16.43;;;;;;;5.31;100.00;93907.13;10489820;28;20282;-73
2020/12/10 06:18:23;;;;;;;24.63;15.25;;;;;;;5.22;100.00;93930.81;10488405;28;20048;-73
2020/12/10 06:23:29;;;;;;;31.42;17.25;;;;;;;5.26;100.00;93913.25;10491027;28;20500;-73
2020/12/10 06:28:30;;;;;;;30.60;17.15;;;;;;;5.27;100.00;93936.16;10492065;28;20123;-73
2020/12/10 06:33:56;;;;;;;30.27;16.50;;;;;;;5.48;100.00;93938.91;10473912;28;20036;-73
2020/12/10 06:38:57;;;;;;;31.85;17.75;;;;;;;5.59;100.00;93931.75;10488504;28;20052;-73
2020/12/10 06:43:57;;;;;;;29.38;17.92;;;;;;;5.47;100.00;93938.09;10490609;28;20028;-73
2020/12/10 06:48:58;;;;;;;32.53;17.92;;;;;;;5.48;100.00;93960.22;10490421;28;20036;-73
2020/12/10 06:54:02;;;;;;;32.67;19.43;;;;;;;5.64;100.00;93953.09;10490618;28;20028;-73
2020/12/10 06:59:04;;;;;;;28.30;15.27;;;;;;;5.65;100.00;93944.00;10489022;28;20286;-73
2020/12/10 07:04:09;;;;;;;10.65;6.93;;;;;;;5.99;100.00;93919.63;10489042;28;20032;-73
2020/12/10 07:09:14;;;;;;;17.73;10.95;;;;;;;6.14;100.00;93926.84;10472059;28;20051;-74
2020/12/10 07:14:30;;;;;;;20.63;11.75;;;;;;;6.47;100.00;93930.88;10500906;28;20044;-73
2020/12/10 07:19:30;;;;;;;20.65;11.45;;;;;;;6.46;100.00;93923.94;10489992;28;20036;-73
2020/12/10 07:24:31;;;;;;;21.45;12.80;;;;;;;6.63;100.00;93944.22;10489160;28;20411;-73
2020/12/10 07:29:32;;;;;;;23.70;14.35;;;;;;;6.73;100.00;93948.75;10488124;28;20028;-73
2020/12/10 07:34:40;;;;;;;21.67;11.15;;;;;;;7.08;100.00;93944.44;10489518;28;20717;-74
2020/12/10 07:39:41;;;;;;;27.95;14.70;;;;;;;7.29;100.00;93929.16;10489588;28;20561;-74
2020/12/10 07:44:41;;;;;;;22.55;14.95;;;;;;;7.42;100.00;93931.22;10490413;28;20024;-74
2020/12/10 07:49:42;;;;;;;28.33;14.70;;;;;;;7.55;100.00;93926.38;10486218;28;20047;-74
2020/12/10 07:54:48;;;;;;;27.08;15.48;;;;;;;7.31;100.00;93948.38;10518784;28;20286;-74
2020/12/10 07:59:56;;;;;;;34.65;17.88;;;;;;;7.24;100.00;93934.50;10519122;28;20032;-72
2020/12/10 08:04:57;;;;;;;25.63;16.65;;;;;;;7.55;100.00;93953.09;10493240;28;20383;-72
2020/12/10 08:09:57;;;;;;;29.55;16.25;;;;;;;7.44;100.00;93947.00;10515371;28;20036;-73
2020/12/10 08:14:57;;;;;;;22.15;13.45;;;;;;;7.53;100.00;93954.19;10521143;28;20426;-73
2020/12/10 08:19:58;;;;;;;24.90;14.37;;;;;;;7.75;100.00;93952.25;10499255;28;20101;-73
2020/12/10 08:24:59;;;;;;;24.83;15.13;;;;;;;7.80;100.00;93946.84;10520095;28;20024;-73
2020/12/10 08:30:03;;;;;;;31.63;15.07;;;;;;;8.02;100.00;93928.56;10519488;28;20294;-73
2020/12/10 08:35:06;;;;;;;34.13;17.23;;;;;;;8.24;100.00;93931.91;10496273;28;20036;-73
2020/12/10 08:40:09;;;;;;;25.73;14.70;;;;;;;8.41;100.00;93942.22;10486732;28;20063;-73
2020/12/10 08:45:10;;;;;;;21.40;12.07;;;;;;;8.46;100.00;93939.53;10485764;28;20434;-73
2020/12/10 08:50:26;;;;;;;22.08;12.40;;;;;;;8.57;100.00;93932.22;10500153;28;20058;-73
2020/12/10 08:55:39;;;;;;;23.25;13.52;;;;;;;8.56;100.00;93918.03;10521828;28;20028;-73
2020/12/10 09:00:40;;;;;;;24.67;13.32;;;;;;;8.71;100.00;93901.81;10501415;28;20127;-77
2020/12/10 09:05:41;;;;;;;27.80;13.27;;;;;;;9.02;100.00;93904.22;10508512;28;20040;-77
2020/12/10 09:10:41;;;;;;;25.33;13.77;;;;;;;8.93;100.00;93910.47;10510587;28;20070;-77
2020/12/10 09:15:45;;;;;;;24.98;14.82;;;;;;;8.52;100.00;93904.38;10528351;28;20680;-76
2020/12/10 09:20:45;;;;;;;25.58;14.13;;;;;;;8.47;100.00;93890.25;10529228;28;20333;-76
2020/12/10 09:25:46;;;;;;;24.08;14.43;;;;;;;8.35;100.00;93883.34;10529010;28;20028;-76
2020/12/10 09:30:46;;;;;;;27.38;15.43;;;;;;;8.58;100.00;93881.03;10510457;28;20269;-76
2020/12/10 09:35:47;;;;;;;24.70;13.07;;;;;;;8.84;100.00;93895.00;10528320;28;20495;-76
2020/12/10 09:40:47;;;;;;;21.50;12.88;;;;;;;9.01;100.00;93888.41;10528076;28;20028;-76
2020/12/10 09:45:55;;;;;;;26.80;13.87;;;;;;;8.96;100.00;93902.69;10528128;28;20040;-76
2020/12/10 09:50:55;;;;;;;30.40;13.95;;;;;;;9.13;100.00;93898.75;10531261;28;20282;-76
2020/12/10 10:00:58;;;;;;;26.33;15.05;;;;;;;9.08;100.00;93891.56;10535230;28;20514;-76
2020/12/10 10:05:58;;;;;;;27.10;15.48;;;;;;;9.19;100.00;93893.03;10535604;28;20044;-76
2020/12/10 10:16:30;;;;;;;26.88;14.25;;;;;;;9.30;100.00;93872.28;10534657;28;20442;-75
2020/12/10 10:21:31;;;;;;;32.67;15.15;;;;;;;9.38;100.00;93857.47;10527421;28;20040;-78
2020/12/10 10:26:31;;;;;;;29.85;16.10;;;;;;;9.50;100.00;93855.16;10512245;28;20041;-76
2020/12/10 10:31:32;;;;;;;30.70;15.30;;;;;;;9.49;100.00;93839.34;10476455;28;20036;-77
2020/12/10 10:36:32;;;;;;;28.08;16.75;;;;;;;9.62;100.00;93840.53;10508057;28;20290;-76
2020/12/10 10:41:42;;;;;;;38.53;18.57;;;;;;;9.67;100.00;93845.81;10504666;28;20051;-79
2020/12/10 10:46:43;;;;;;;31.60;17.00;;;;;;;9.57;100.00;93852.09;10516254;28;20055;-75
2020/12/10 10:51:47;;;;;;;28.23;17.42;;;;;;;9.62;100.00;93854.72;10533709;28;20051;-75
2020/12/10 10:56:48;;;;;;;25.10;15.70;;;;;;;9.64;100.00;93849.88;10524439;28;20074;-77
2020/12/10 11:01:48;;;;;;;23.60;14.40;;;;;;;9.61;100.00;93850.44;10490174;28;20118;-76
2020/12/10 11:06:51;;;;;;;31.43;15.93;;;;;;;9.57;100.00;93836.81;10490512;28;20071;-76
2020/12/10 11:11:53;;;;;;;30.15;16.38;;;;;;;9.71;100.00;93839.59;10491524;28;20380;-76
2020/12/10 11:16:57;;;;;;;34.75;16.52;;;;;;;9.78;100.00;93843.78;10519911;28;20534;-75
2020/12/10 11:21:59;;;;;;;27.45;15.40;;;;;;;9.81;100.00;93833.28;10510286;28;20039;-76
2020/12/10 11:27:00;;;;;;;58.83;32.08;;;;;;;9.73;100.00;93823.19;10532137;28;20074;-80
2020/12/10 11:32:00;;;;;;;83.05;46.35;;;;;;;9.73;100.00;93820.50;10505572;28;20465;-83
2020/12/10 11:37:01;;;;;;;69.47;38.50;;;;;;;9.58;100.00;93811.56;10501840;28;20032;-75
2020/12/10 11:42:02;;;;;;;76.47;39.47;;;;;;;9.31;100.00;93801.50;10520297;28;20036;-75
2020/12/10 11:47:04;;;;;;;67.65;38.80;;;;;;;9.22;100.00;93805.88;10511914;28;20393;-75
2020/12/10 11:52:05;;;;;;;72.38;39.85;;;;;;;9.14;100.00;93820.75;10510556;28;20040;-75
2020/12/10 11:57:05;;;;;;;76.35;41.17;;;;;;;9.00;100.00;93817.94;10530790;28;20058;-75
2020/12/10 12:02:10;;;;;;;79.22;39.83;;;;;;;8.99;100.00;93819.03;10531122;28;20069;-75
2020/12/10 12:07:11;;;;;;;90.97;43.75;;;;;;;8.80;100.00;93816.28;10530735;28;20048;-75
2020/12/10 12:12:12;;;;;;;77.63;42.60;;;;;;;8.78;100.00;93812.31;10530059;28;20032;-75
2020/12/10 12:17:13;;;;;;;80.57;44.97;;;;;;;8.81;100.00;93806.38;10529538;28;20040;-75
2020/12/10 12:22:14;;;;;;;80.05;44.83;;;;;;;8.75;100.00;93788.75;10529914;28;20058;-75
2020/12/10 12:27:16;;;;;;;80.00;45.03;;;;;;;8.86;100.00;93779.50;10529520;28;20028;-75
2020/12/10 12:32:17;;;;;;;80.25;44.95;;;;;;;8.87;100.00;93770.41;10529581;28;20043;-75
2020/12/10 12:37:18;;;;;;;82.50;46.08;;;;;;;8.88;100.00;93766.63;10530012;28;20039;-75
2020/12/10 12:42:18;;;;;;;87.20;45.92;;;;;;;8.77;100.00;93775.88;10529571;28;20035;-75
2020/12/10 12:47:19;;;;;;;77.78;44.47;;;;;;;8.81;100.00;93766.97;10510912;28;20480;-75
2020/12/10 12:52:24;;;;;;;89.43;50.05;;;;;;;8.81;100.00;93766.19;10528990;28;20039;-75
2020/12/10 12:57:25;;;;;;;92.75;49.15;;;;;;;8.77;100.00;93765.16;10534897;28;20109;-75
2020/12/10 13:02:26;;;;;;;99.35;50.10;;;;;;;8.74;100.00;93763.84;10529139;28;20086;-75
2020/12/10 13:07:26;;;;;;;84.82;47.20;;;;;;;8.70;100.00;93768.19;10528837;28;20044;-75
2020/12/10 13:12:27;;;;;;;83.03;42.75;;;;;;;8.80;100.00;93777.97;10510796;28;20040;-75
2020/12/10 13:17:27;;;;;;;75.45;43.13;;;;;;;8.81;100.00;93783.06;10528337;28;20160;-75
2020/12/10 13:22:29;;;;;;;91.55;46.35;;;;;;;8.84;100.00;93789.72;10529042;28;20117;-75
2020/12/10 13:27:32;;;;;;;88.93;45.80;;;;;;;8.85;100.00;93791.34;10532335;28;20453;-75
2020/12/10 13:32:33;;;;;;;80.30;46.47;;;;;;;8.86;100.00;93795.59;10536714;28;20032;-75
2020/12/10 13:37:37;;;;;;;90.40;49.08;;;;;;;8.87;100.00;93792.66;10536509;28;20467;-75
2020/12/10 13:42:38;;;;;;;91.97;50.17;;;;;;;8.86;100.00;93784.88;10517732;28;20040;-75
2020/12/10 13:47:42;;;;;;;92.78;49.35;;;;;;;8.80;100.00;93777.97;10518329;28;20044;-75
2020/12/10 13:52:43;;;;;;;101.90;52.53;;;;;;;8.75;100.00;93776.16;10535813;28;20097;-75
2020/12/10 13:57:45;;;;;;;95.65;51.22;;;;;;;8.70;100.00;93785.03;10534954;28;20085;-75
2020/12/10 14:02:46;;;;;;;95.20;50.95;;;;;;;8.51;100.00;93776.13;10515193;28;20143;-75
2020/12/10 14:07:47;;;;;;;97.07;51.22;;;;;;;8.56;100.00;93781.44;10535501;28;20150;-75
2020/12/10 14:12:47;;;;;;;93.78;48.97;;;;;;;8.33;100.00;93778.44;10535553;28;20032;-74
2020/12/10 14:17:51;;;;;;;92.03;46.95;;;;;;;8.39;100.00;93779.97;10513013;28;20048;-74
2020/12/10 14:22:52;;;;;;;99.05;51.55;;;;;;;8.35;100.00;93776.25;10496047;28;20055;-74
2020/12/10 14:27:53;;;;;;;95.97;48.70;;;;;;;8.36;100.00;93771.72;10514737;28;20036;-74
2020/12/10 14:32:53;;;;;;;105.68;49.83;;;;;;;8.42;100.00;93767.13;10512897;28;20051;-74
2020/12/10 14:37:54;;;;;;;97.47;48.38;;;;;;;8.43;100.00;93764.16;10532609;28;20126;-74
2020/12/10 14:42:55;;;;;;;111.53;56.00;;;;;;;8.34;100.00;93761.31;10515894;28;20057;-74
2020/12/10 14:47:56;;;;;;;105.72;53.05;;;;;;;8.30;100.00;93770.16;10533362;28;20065;-74
2020/12/10 14:52:57;;;;;;;91.88;51.17;;;;;;;8.37;100.00;93763.41;10507069;28;20036;-74
2020/12/10 14:57:57;;;;;;;94.93;51.00;;;;;;;8.41;100.00;93765.50;10504146;28;20032;-75
2020/12/10 15:02:58;;;;;;;91.32;48.55;;;;;;;8.33;100.00;93759.69;10512152;28;20381;-74
2020/12/10 15:07:58;;;;;;;95.67;51.50;;;;;;;8.31;100.00;93761.84;10533165;28;20032;-75
2020/12/10 15:12:59;;;;;;;114.47;57.23;;;;;;;8.14;100.00;93756.91;10532451;28;20051;-75
2020/12/10 15:17:59;;;;;;;105.13;54.00;;;;;;;8.17;100.00;93756.34;10524754;28;20301;-75
2020/12/10 15:23:00;;;;;;;108.82;54.67;;;;;;;8.28;100.00;93754.38;10490467;28;20093;-75
2020/12/10 15:28:00;;;;;;;104.00;55.97;;;;;;;8.29;100.00;93752.50;10489986;28;20041;-75
2020/12/10 15:33:02;;;;;;;116.00;58.83;;;;;;;8.13;100.00;93741.16;10489515;28;20491;-76
2020/12/10 15:38:04;;;;;;;97.45;54.60;;;;;;;8.05;100.00;93742.53;10489577;28;20033;-76
2020/12/10 15:43:04;;;;;;;101.18;53.42;;;;;;;8.03;100.00;93737.47;10490068;28;20032;-76
2020/12/10 15:48:05;;;;;;;102.80;51.97;;;;;;;8.12;100.00;93739.53;10488671;28;20032;-75
2020/12/10 15:53:06;;;;;;;103.70;57.45;;;;;;;8.02;100.00;93743.09;10488860;28;20120;-75
2020/12/10 15:58:32;;;;;;;113.25;56.78;;;;;;;8.13;100.00;93736.59;10488962;28;20043;-76
2020/12/10 16:03:35;;;;;;;104.20;54.33;;;;;;;8.20;100.00;93733.59;10488737;28;20063;-76
2020/12/10 16:08:36;;;;;;;100.82;52.63;;;;;;;8.23;100.00;93734.91;10488935;28;20032;-76
2020/12/10 16:13:37;;;;;;;119.75;55.50;;;;;;;8.25;100.00;93732.72;10470470;28;20029;-75
2020/12/10 16:18:37;;;;;;;109.70;53.40;;;;;;;8.32;100.00;93731.31;10491898;28;20052;-76
2020/12/10 16:29:06;;;;;;;85.88;48.58;;;;;;;8.32;100.00;93730.53;10529256;28;20036;-75
2020/12/10 16:34:07;;;;;;;99.47;50.35;;;;;;;8.29;100.00;93737.25;10515795;28;20109;-75
2020/12/10 16:39:08;;;;;;;89.57;46.58;;;;;;;8.30;100.00;93740.72;10510973;28;20158;-76
2020/12/10 16:44:10;;;;;;;86.75;47.60;;;;;;;8.31;100.00;93735.06;10490604;28;20040;-76
2020/12/10 16:49:37;;;;;;;95.18;49.10;;;;;;;8.30;100.00;93738.03;10529770;28;20087;-76
2020/12/10 16:54:42;;;;;;;89.25;45.45;;;;;;;8.34;100.00;93742.56;10524896;28;20042;-76
2020/12/10 16:59:43;;;;;;;85.75;46.97;;;;;;;8.36;100.00;93735.03;10524566;28;20028;-76
2020/12/10 17:10:40;;;;;;;93.70;50.10;;;;;;;8.24;100.00;93731.94;10521380;28;20153;-74
2020/12/10 17:15:41;;;;;;;99.03;54.78;;;;;;;8.26;100.00;93732.47;10504959;28;20071;-73
2020/12/10 17:20:43;;;;;;;92.25;49.33;;;;;;;8.27;100.00;93736.72;10509879;28;20189;-73
2020/12/10 17:25:48;;;;;;;100.40;51.35;;;;;;;8.30;100.00;93736.16;10501811;28;20040;-73
2020/12/10 17:30:50;;;;;;;77.25;40.42;;;;;;;8.30;100.00;93738.03;10521346;28;20131;-73
2020/12/10 17:35:52;;;;;;;73.07;35.55;;;;;;;8.26;100.00;93735.13;10524158;28;20104;-73
2020/12/10 17:40:54;;;;;;;67.15;35.08;;;;;;;8.27;100.00;93749.31;10519991;28;20119;-73
2020/12/10 17:56:50;;;;;;;133.60;70.13;;;;;;;8.18;100.00;93733.06;10502778;28;20048;-73
2020/12/10 18:01:52;;;;;;;240.77;116.97;;;;;;;8.21;100.00;93732.50;10505006;28;20154;-74
2020/12/10 18:07:19;;;;;;;243.20;121.75;;;;;;;8.20;100.00;93738.94;10519509;28;20036;-72
2020/12/10 18:24:25;;;;;;;132.43;69.32;;;;;;;8.11;100.00;93746.00;10470428;28;20484;-74
2020/12/10 18:29:26;;;;;;;101.22;48.80;;;;;;;7.95;100.00;93740.75;10492526;28;20029;-74
2020/12/10 18:34:26;;;;;;;69.70;35.90;;;;;;;7.89;100.00;93741.88;10475157;28;20427;-71
2020/12/10 18:39:27;;;;;;;58.83;29.70;;;;;;;7.89;100.00;93733.88;10481224;28;20123;-72
2020/12/10 18:44:28;;;;;;;48.50;23.13;;;;;;;7.68;100.00;93735.91;10460070;28;20103;-72
2020/12/10 18:49:28;;;;;;;45.05;21.60;;;;;;;7.67;100.00;93734.31;10459895;28;20501;-72
2020/12/10 18:54:29;;;;;;;39.95;20.00;;;;;;;7.49;100.00;93739.25;10491048;28;20039;-73
2020/12/10 18:59:31;;;;;;;42.38;19.75;;;;;;;7.46;100.00;93747.81;10491435;28;20828;-72
2020/12/10 19:04:31;;;;;;;43.67;19.77;;;;;;;7.48;100.00;93755.56;10472253;28;20091;-73
2020/12/10 19:09:33;;;;;;;37.67;20.87;;;;;;;7.47;100.00;93754.75;10463423;28;20074;-73
2020/12/10 19:14:35;;;;;;;45.15;20.98;;;;;;;7.47;100.00;93759.31;10482282;28;20052;-73
2020/12/10 19:19:38;;;;;;;41.38;21.73;;;;;;;7.40;100.00;93761.50;10511686;28;20048;-73
2020/12/10 19:24:39;;;;;;;53.38;24.77;;;;;;;7.26;100.00;93767.47;10503183;28;20056;-73
2020/12/10 19:35:33;;;;;;;47.63;25.07;;;;;;;7.35;100.00;93768.47;10531645;28;20122;-73
2020/12/10 19:46:00;;;;;;;52.28;26.75;;;;;;;7.21;100.00;93759.47;10498417;28;20040;-73
2020/12/10 19:51:03;;;;;;;46.47;25.13;;;;;;;7.29;100.00;93779.47;10494342;28;20036;-73
2020/12/10 19:56:14;;;;;;;57.67;28.92;;;;;;;7.30;100.00;93776.53;10521688;28;20035;-78
2020/12/10 20:01:15;;;;;;;50.05;25.75;;;;;;;7.34;100.00;93782.91;10530495;28;20044;-73
2020/12/10 20:06:19;;;;;;;47.65;25.58;;;;;;;7.34;100.00;93782.13;10469217;28;20043;-73
2020/12/10 20:11:46;;;;;;;46.25;24.10;;;;;;;7.20;100.00;93789.94;10507408;28;20038;-73
2020/12/10 20:16:47;;;;;;;38.05;19.52;;;;;;;7.05;100.00;93787.31;10496150;28;20055;-73
2020/12/10 20:21:52;;;;;;;37.78;18.65;;;;;;;6.82;100.00;93786.88;10511735;28;20050;-73
2020/12/10 20:27:46;;;;;;;34.22;17.13;;;;;;;6.54;100.00;93790.97;10484908;28;20043;-73
2020/12/10 20:32:51;;;;;;;28.17;14.02;;;;;;;6.32;100.00;93789.41;10510286;28;20028;-73
2020/12/10 20:38:19;;;;;;;29.75;13.82;;;;;;;6.16;100.00;93802.00;10524004;28;20032;-73
2020/12/10 20:43:20;;;;;;;25.95;12.80;;;;;;;6.03;100.00;93805.19;10523813;28;20046;-73
2020/12/10 20:48:24;;;;;;;16.90;8.18;;;;;;;5.90;100.00;93825.97;10518698;28;20032;-73
2020/12/10 20:53:24;;;;;;;12.32;7.03;;;;;;;5.76;100.00;93819.56;10464384;28;20507;-73
2020/12/10 20:58:50;;;;;;;12.97;7.63;;;;;;;5.63;100.00;93831.53;10485340;28;20111;-73
2020/12/10 21:03:50;;;;;;;14.20;8.30;;;;;;;5.68;100.00;93836.88;10483448;28;20124;-73
2020/12/10 21:08:51;;;;;;;16.35;8.18;;;;;;;5.69;100.00;93840.34;10491483;28;20036;-73
2020/12/10 21:13:54;;;;;;;15.27;7.15;;;;;;;5.74;100.00;93838.47;10543666;28;20474;-73
2020/12/10 21:18:56;;;;;;;9.68;5.80;;;;;;;5.86;100.00;93838.25;10537295;28;20044;-73
2020/12/10 21:23:56;;;;;;;9.98;5.97;;;;;;;5.86;100.00;93832.91;10505952;28;20510;-76
2020/12/10 21:28:57;;;;;;;14.07;8.13;;;;;;;5.92;100.00;93831.84;10500181;28;20170;-73
2020/12/10 21:33:58;;;;;;;14.90;8.23;;;;;;;5.84;100.00;93821.69;10504503;28;20040;-74
2020/12/10 21:38:58;;;;;;;12.50;6.97;;;;;;;5.86;100.00;93818.75;10503598;28;20025;-74
2020/12/10 21:43:59;;;;;;;12.23;5.80;;;;;;;5.69;100.00;93829.69;10509735;28;20044;-74
2020/12/10 21:49:00;;;;;;;8.40;5.10;;;;;;;5.55;100.00;93832.06;10530139;28;20780;-74
2020/12/10 21:54:00;;;;;;;14.48;6.35;;;;;;;5.47;100.00;93838.72;10500978;28;20043;-73
2020/12/10 21:59:01;;;;;;;10.35;6.18;;;;;;;5.35;100.00;93843.47;10515586;28;20055;-73
2020/12/10 22:04:01;;;;;;;12.83;7.50;;;;;;;5.28;100.00;93841.06;10495833;28;20032;-74
2020/12/10 22:09:02;;;;;;;16.85;8.55;;;;;;;5.30;100.00;93847.72;10509648;28;20093;-74
2020/12/10 22:14:04;;;;;;;18.67;8.45;;;;;;;5.21;100.00;93846.63;10532160;28;20024;-74
2020/12/10 22:19:05;;;;;;;16.58;8.80;;;;;;;5.25;100.00;93853.03;10513398;28;20483;-73
2020/12/10 22:24:05;;;;;;;14.18;8.02;;;;;;;5.19;100.00;93837.28;10532864;28;20036;-74
2020/12/10 22:29:06;;;;;;;9.00;5.80;;;;;;;5.24;100.00;93838.09;10535705;28;20076;-74
2020/12/10 22:34:06;;;;;;;9.82;5.38;;;;;;;5.14;100.00;93841.53;10532277;28;20107;-74
2020/12/10 22:39:07;;;;;;;13.60;4.93;;;;;;;5.15;100.00;93850.34;10514368;28;20067;-73
2020/12/10 22:44:07;;;;;;;7.95;3.58;;;;;;;4.98;100.00;93845.19;10531451;28;20438;-74
2020/12/10 22:49:08;;;;;;;9.43;4.50;;;;;;;4.99;100.00;93852.13;10530127;28;20032;-74
2020/12/10 22:54:08;;;;;;;7.43;3.97;;;;;;;4.83;100.00;93848.59;10529741;28;20036;-74
2020/12/10 22:59:10;;;;;;;6.57;3.33;;;;;;;5.05;100.00;93842.28;10530337;28;20036;-74
2020/12/10 23:04:10;;;;;;;4.65;3.00;;;;;;;5.28;100.00;93841.06;10512241;28;20044;-74
2020/12/10 23:09:12;;;;;;;5.20;2.53;;;;;;;5.41;100.00;93837.09;10489415;28;20032;-74
2020/12/10 23:14:13;;;;;;;5.97;3.25;;;;;;;5.46;100.00;93843.22;10488984;28;20793;-74
2020/12/10 23:19:13;;;;;;;6.28;3.13;;;;;;;5.45;100.00;93835.50;10491760;28;20024;-74
2020/12/10 23:24:13;;;;;;;7.10;4.50;;;;;;;5.50;100.00;93826.69;10499372;28;20028;-74
2020/12/10 23:29:14;;;;;;;6.93;4.53;;;;;;;5.63;100.00;93843.00;10470626;28;20282;-74
2020/12/10 23:34:14;;;;;;;6.95;4.22;;;;;;;5.62;100.00;93835.25;10488425;28;20961;-77
2020/12/10 23:39:15;;;;;;;6.78;4.70;;;;;;;5.71;100.00;93827.56;10488847;28;20027;-77
2020/12/10 23:44:15;;;;;;;15.05;7.90;;;;;;;5.76;100.00;93825.69;10506561;28;20501;-77
2020/12/10 23:49:16;;;;;;;6.90;4.50;;;;;;;5.69;100.00;93819.81;10528753;28;20082;-76
2020/12/10 23:54:16;;;;;;;11.47;5.50;;;;;;;5.75;100.00;93820.59;10528979;28;20664;-77